createdAt,value
2022-09-28T00:01:14.853Z,19.13
2022-09-28T00:03:42.069Z,19.77
2022-09-28T00:06:11.800Z,19.45
2022-09-28T00:08:40.362Z,19.23
2022-09-28T00:11:12.502Z,22.77
2022-09-28T00:13:40.550Z,17.77
2022-09-28T00:16:11.335Z,20.20
2022-09-28T00:18:38.603Z,20.08
2022-09-28T00:21:09.081Z,18.20
2022-09-28T00:23:55.672Z,17.63
2022-09-28T00:26:23.322Z,21.98
2022-09-28T00:28:59.405Z,19.73
2022-09-28T00:31:32.889Z,17.42
2022-09-28T00:34:05.080Z,18.15
2022-09-28T00:36:33.899Z,16.75
2022-09-28T00:39:06.208Z,16.73
2022-09-28T00:41:34.536Z,15.23
2022-09-28T00:44:26.689Z,18.90
2022-09-28T00:47:01.283Z,17.02
2022-09-28T00:49:57.439Z,18.25
2022-09-28T00:52:33.999Z,17.23
2022-09-28T00:55:06.849Z,18.10
2022-09-28T00:57:34.899Z,17.90
2022-09-28T01:00:03.398Z,18.10
2022-09-28T01:02:31.685Z,19.13
2022-09-28T01:05:00.805Z,14.73
2022-09-28T01:07:28.053Z,18.65
2022-09-28T01:09:56.467Z,20.00
2022-09-28T01:12:23.563Z,18.45
2022-09-28T01:14:52.159Z,20.02
2022-09-28T01:17:54.690Z,17.52
2022-09-28T01:20:47.597Z,19.55
2022-09-28T01:23:53.599Z,18.05
2022-09-28T01:26:32.480Z,18.02
2022-09-28T01:29:37.052Z,19.88
2022-09-28T01:32:16.366Z,18.92
2022-09-28T01:35:09.080Z,16.63
2022-09-28T01:37:52.972Z,19.25
2022-09-28T01:40:23.177Z,16.50
2022-09-28T01:42:56.603Z,19.83
2022-09-28T01:45:29.331Z,16.58
2022-09-28T01:48:02.720Z,17.38
2022-09-28T01:50:34.489Z,15.52
2022-09-28T01:53:10.134Z,15.23
2022-09-28T01:55:50.581Z,14.63
2022-09-28T01:58:28.480Z,18.02
2022-09-28T02:01:03.243Z,16.98
2022-09-28T02:03:41.054Z,16.50
2022-09-28T02:06:22.679Z,15.63
2022-09-28T02:08:57.652Z,14.43
2022-09-28T02:11:37.531Z,13.63
2022-09-28T02:14:09.317Z,12.50
2022-09-28T02:16:45.326Z,11.45
2022-09-28T02:19:16.591Z,11.32
2022-09-28T02:21:54.169Z,14.20
2022-09-28T02:24:33.560Z,17.48
2022-09-28T02:27:08.733Z,12.27
2022-09-28T02:29:35.880Z,13.23
2022-09-28T02:32:03.289Z,12.40
2022-09-28T02:34:30.444Z,13.68
2022-09-28T02:36:58.262Z,11.13
2022-09-28T02:39:25.999Z,13.27
2022-09-28T02:42:11.289Z,13.60
2022-09-28T02:44:57.988Z,13.40
2022-09-28T02:47:56.752Z,12.65
2022-09-28T02:50:38.364Z,11.73
2022-09-28T02:53:15.254Z,12.77
2022-09-28T02:56:06.772Z,11.77
2022-09-28T02:58:48.164Z,12.88
2022-09-28T03:01:24.410Z,12.70
2022-09-28T03:04:13.754Z,13.95
2022-09-28T03:06:48.853Z,15.90
2022-09-28T03:09:26.089Z,15.27
2022-09-28T03:12:01.261Z,15.38
2022-09-28T03:14:28.439Z,14.43
2022-09-28T03:16:57.689Z,13.57
2022-09-28T03:19:30.720Z,14.27
2022-09-28T03:22:00.538Z,13.38
2022-09-28T03:24:27.773Z,11.70
2022-09-28T03:26:55.042Z,13.88
2022-09-28T03:29:23.023Z,13.90
2022-09-28T03:31:57.086Z,13.40
2022-09-28T03:34:24.238Z,12.60
2022-09-28T03:36:51.922Z,15.95
2022-09-28T03:39:19.283Z,15.15
2022-09-28T03:41:46.448Z,16.08
2022-09-28T03:44:13.937Z,14.82
2022-09-28T03:46:41.250Z,16.20
2022-09-28T03:49:10.805Z,14.48
2022-09-28T03:51:37.999Z,14.52
2022-09-28T03:54:05.571Z,12.80
2022-09-28T03:56:33.280Z,14.25
2022-09-28T03:59:02.722Z,16.15
2022-09-28T04:01:29.915Z,15.30
2022-09-28T04:03:58.119Z,16.13
2022-09-28T04:06:25.788Z,14.95
2022-09-28T04:08:53.359Z,15.50
2022-09-28T04:11:20.491Z,13.50
2022-09-28T04:13:51.037Z,16.15
2022-09-28T04:16:19.195Z,16.35
2022-09-28T04:18:59.359Z,16.00
2022-09-28T04:21:26.481Z,16.17
2022-09-28T04:24:14.759Z,15.32
2022-09-28T04:26:41.937Z,16.52
2022-09-28T04:29:17.469Z,16.13
2022-09-28T04:31:56.393Z,16.98
2022-09-28T04:34:36.494Z,19.20
2022-09-28T04:37:06.171Z,16.13
2022-09-28T04:39:33.427Z,17.48
2022-09-28T04:42:01.450Z,17.83
2022-09-28T04:44:29.039Z,16.05
2022-09-28T04:47:04.332Z,16.20
2022-09-28T04:49:32.284Z,19.15
2022-09-28T04:52:15.806Z,16.95
2022-09-28T04:54:45.259Z,18.15
2022-09-28T04:57:12.369Z,14.52
2022-09-28T04:59:39.484Z,16.95
2022-09-28T05:02:06.742Z,20.33
2022-09-28T05:04:52.330Z,15.60
2022-09-28T05:07:37.454Z,16.80
2022-09-28T05:10:07.053Z,14.63
2022-09-28T05:12:34.572Z,13.30
2022-09-28T05:15:01.840Z,14.40
2022-09-28T05:17:29.122Z,15.48
2022-09-28T05:20:06.843Z,13.70
2022-09-28T05:22:34.494Z,14.77
2022-09-28T05:25:03.083Z,15.48
2022-09-28T05:27:36.528Z,14.15
2022-09-28T05:30:08.762Z,18.65
2022-09-28T05:32:58.922Z,15.90
2022-09-28T05:35:30.044Z,20.67
2022-09-28T05:38:02.561Z,18.80
2022-09-28T05:40:29.912Z,17.98
2022-09-28T05:43:02.226Z,16.65
2022-09-28T05:45:30.214Z,16.80
2022-09-28T05:47:57.570Z,16.58
2022-09-28T05:50:25.244Z,18.88
2022-09-28T05:53:08.447Z,17.50
2022-09-28T05:55:37.918Z,15.77
2022-09-28T05:58:07.429Z,17.45
2022-09-28T06:00:36.160Z,18.42
2022-09-28T06:03:08.982Z,19.75
2022-09-28T06:05:39.582Z,16.80
2022-09-28T06:08:08.700Z,19.17
2022-09-28T06:10:36.164Z,21.23
2022-09-28T06:13:03.402Z,20.65
2022-09-28T06:15:32.599Z,18.63
2022-09-28T06:18:10.878Z,17.10
2022-09-28T06:20:43.484Z,18.23
2022-09-28T06:23:18.031Z,17.95
2022-09-28T06:25:45.327Z,16.00
2022-09-28T06:28:14.559Z,16.67
2022-09-28T06:30:44.286Z,12.45
2022-09-28T06:33:16.527Z,13.40
2022-09-28T06:35:43.725Z,15.10
2022-09-28T06:38:11.252Z,18.33
2022-09-28T06:40:38.811Z,21.65
2022-09-28T06:43:10.813Z,18.20
2022-09-28T06:45:56.688Z,15.93
2022-09-28T06:48:33.741Z,18.70
2022-09-28T06:51:02.040Z,16.90
2022-09-28T06:53:54.083Z,15.55
2022-09-28T06:56:59.511Z,14.00
2022-09-28T06:59:26.759Z,17.25
2022-09-28T07:01:54.463Z,19.23
2022-09-28T07:04:45.722Z,13.82
2022-09-28T07:07:33.314Z,17.88
2022-09-28T07:10:07.471Z,19.77
2022-09-28T07:12:43.840Z,18.75
2022-09-28T07:15:34.136Z,16.05
2022-09-28T07:18:04.072Z,19.25
2022-09-28T07:20:42.692Z,16.50
2022-09-28T07:23:19.388Z,17.08
2022-09-28T07:26:22.756Z,15.68
2022-09-28T07:29:10.569Z,18.13
2022-09-28T07:31:42.368Z,21.80
2022-09-28T07:34:28.201Z,18.30
2022-09-28T07:37:11.209Z,20.27
2022-09-28T07:39:58.960Z,15.68
2022-09-28T07:42:30.252Z,14.63
2022-09-28T07:44:58.687Z,16.13
2022-09-28T07:47:34.597Z,17.05
2022-09-28T07:50:32.827Z,13.82
2022-09-28T07:53:06.399Z,14.00
2022-09-28T07:56:08.984Z,14.18
2022-09-28T07:58:49.883Z,13.93
2022-09-28T08:01:32.107Z,13.73
2022-09-28T08:04:00.524Z,14.57
2022-09-28T08:06:27.900Z,16.33
2022-09-28T08:08:56.471Z,16.52
2022-09-28T08:11:44.150Z,17.80
2022-09-28T08:14:23.360Z,20.42
2022-09-28T08:17:09.093Z,14.90
2022-09-28T08:20:04.631Z,18.08
2022-09-28T08:22:32.465Z,17.98
2022-09-28T08:25:02.081Z,18.85
2022-09-28T08:27:29.775Z,17.02
2022-09-28T08:29:57.084Z,16.52
2022-09-28T08:32:49.599Z,15.93
2022-09-28T08:35:35.306Z,16.60
2022-09-28T08:38:22.001Z,16.63
2022-09-28T08:41:08.138Z,15.60
2022-09-28T08:44:12.867Z,14.68
2022-09-28T08:47:33.059Z,12.30
2022-09-28T08:50:33.921Z,11.43
2022-09-28T08:53:43.348Z,11.13
2022-09-28T08:56:50.637Z,12.93
2022-09-28T08:59:23.078Z,12.18
2022-09-28T09:02:03.734Z,11.75
2022-09-28T09:04:34.240Z,10.90
2022-09-28T09:07:52.333Z,10.88
2022-09-28T09:10:38.693Z,12.10
2022-09-28T09:13:21.180Z,10.40
2022-09-28T09:16:24.426Z,10.63
2022-09-28T09:19:36.441Z,9.75
2022-09-28T09:22:48.104Z,11.40
2022-09-28T09:25:28.790Z,8.20
2022-09-28T09:28:09.330Z,9.77
2022-09-28T09:31:04.612Z,8.83
2022-09-28T09:36:30.648Z,9.57
2022-09-28T09:39:28.842Z,10.90
2022-09-28T09:42:45.068Z,9.77
2022-09-28T09:45:55.186Z,12.38
2022-09-28T09:48:44.885Z,12.57
2022-09-28T09:51:41.427Z,10.48
2022-09-28T09:54:57.681Z,11.75
2022-09-28T09:57:47.550Z,12.43
2022-09-28T10:00:34.250Z,9.82
2022-09-28T10:03:30.206Z,13.27
2022-09-28T10:06:32.171Z,9.65
2022-09-28T10:09:05.883Z,12.38
2022-09-28T10:11:52.292Z,9.65
2022-09-28T10:14:23.004Z,11.93
2022-09-28T10:17:02.778Z,8.20
2022-09-28T10:19:55.120Z,9.32
2022-09-28T10:22:44.330Z,10.68
2022-09-28T10:25:16.199Z,11.68
2022-09-28T10:27:46.518Z,8.70
2022-09-28T10:30:25.563Z,11.00
2022-09-28T10:32:59.304Z,8.82
2022-09-28T10:35:42.010Z,8.68
2022-09-28T10:38:19.246Z,9.25
2022-09-28T10:40:59.784Z,6.60
2022-09-28T10:44:11.229Z,8.25
2022-09-28T10:46:57.199Z,8.93
2022-09-28T10:49:37.697Z,6.70
2022-09-28T10:52:08.939Z,6.25
2022-09-28T10:54:53.955Z,5.90
2022-09-28T10:57:29.811Z,6.68
2022-09-28T11:00:07.570Z,6.60
2022-09-28T11:02:41.159Z,6.88
2022-09-28T11:05:23.203Z,7.00
2022-09-28T11:07:56.238Z,6.20
2022-09-28T11:10:31.641Z,7.47
2022-09-28T11:13:10.866Z,6.50
2022-09-28T11:15:44.550Z,6.72
2022-09-28T11:18:31.817Z,6.88
2022-09-28T11:21:15.473Z,5.43
2022-09-28T11:24:06.750Z,6.85
2022-09-28T11:26:44.249Z,5.82
2022-09-28T11:29:37.528Z,5.20
2022-09-28T11:32:22.201Z,4.45
2022-09-28T11:35:51.423Z,4.43
2022-09-28T11:38:38.092Z,6.20
2022-09-28T11:41:34.984Z,6.15
2022-09-28T11:44:37.672Z,5.07
2022-09-28T11:47:23.568Z,5.25
2022-09-28T11:50:33.652Z,5.57
2022-09-28T11:53:28.330Z,7.28
2022-09-28T11:56:17.968Z,4.78
2022-09-28T11:58:50.125Z,6.43
2022-09-28T12:01:40.720Z,4.72
2022-09-28T12:04:28.850Z,6.30
2022-09-28T12:07:14.639Z,4.85
2022-09-28T12:09:50.813Z,6.97
2022-09-28T12:12:25.687Z,5.85
2022-09-28T12:14:59.560Z,6.20
2022-09-28T12:17:41.123Z,6.15
2022-09-28T12:20:28.839Z,5.47
2022-09-28T12:23:01.853Z,7.10
2022-09-28T12:25:37.218Z,5.47
2022-09-28T12:28:13.571Z,5.38
2022-09-28T12:30:44.239Z,6.65
2022-09-28T12:33:15.619Z,7.18
2022-09-28T12:36:07.381Z,6.57
2022-09-28T12:38:34.654Z,5.93
2022-09-28T12:41:43.824Z,7.35
2022-09-28T12:44:13.927Z,8.07
2022-09-28T12:46:54.550Z,7.13
2022-09-28T12:50:36.279Z,5.35
2022-09-28T12:52:51.121Z,5.80
2022-09-28T12:55:30.601Z,7.25
2022-09-28T12:58:22.213Z,7.77
2022-09-28T13:01:14.032Z,6.45
2022-09-28T13:04:20.681Z,7.22
2022-09-28T13:07:15.093Z,6.97
2022-09-28T13:09:58.719Z,6.43
2022-09-28T13:12:26.072Z,6.15
2022-09-28T13:15:15.810Z,6.55
2022-09-28T13:17:57.217Z,5.22
2022-09-28T13:20:49.805Z,7.00
2022-09-28T13:23:29.043Z,4.60
2022-09-28T13:26:07.576Z,5.05
2022-09-28T13:28:37.633Z,6.15
2022-09-28T13:31:05.934Z,5.65
2022-09-28T13:33:37.411Z,4.95
2022-09-28T13:36:28.784Z,6.97
2022-09-28T13:38:59.763Z,5.50
2022-09-28T13:41:32.440Z,8.50
2022-09-28T13:44:12.961Z,5.72
2022-09-28T13:46:46.251Z,7.03
2022-09-28T13:49:49.499Z,6.60
2022-09-28T13:52:35.383Z,5.30
2022-09-28T13:55:27.748Z,7.95
2022-09-28T13:58:14.800Z,7.85
2022-09-28T14:00:58.726Z,8.80
2022-09-28T14:03:44.452Z,6.78
2022-09-28T14:06:29.479Z,7.00
2022-09-28T14:09:16.274Z,6.05
2022-09-28T14:11:56.462Z,7.15
2022-09-28T14:14:44.959Z,6.53
2022-09-28T14:17:24.332Z,6.65
2022-09-28T14:19:57.864Z,9.90
2022-09-28T14:22:50.444Z,7.72
2022-09-28T14:25:45.061Z,13.35
2022-09-28T14:28:44.606Z,6.57
2022-09-28T14:31:25.421Z,4.60
2022-09-28T14:34:03.855Z,9.15
2022-09-28T14:37:15.752Z,11.20
2022-09-28T14:40:05.609Z,6.47
2022-09-28T14:42:33.013Z,8.57
2022-09-28T14:45:06.361Z,7.32
2022-09-28T14:47:37.038Z,7.28
2022-09-28T14:50:29.097Z,7.93
2022-09-28T14:53:04.632Z,4.60
2022-09-28T14:55:39.129Z,6.82
2022-09-28T14:58:16.583Z,5.35
2022-09-28T15:00:45.063Z,4.90
2022-09-28T15:03:14.595Z,4.45
2022-09-28T15:05:49.887Z,4.83
2022-09-28T15:08:21.180Z,4.78
2022-09-28T15:10:50.352Z,4.53
2022-09-28T15:13:28.852Z,5.32
2022-09-28T15:16:09.048Z,7.32
2022-09-28T15:19:05.599Z,6.15
2022-09-28T15:21:38.842Z,2.95
2022-09-28T15:25:10.799Z,2.58
2022-09-28T15:27:39.407Z,7.30
2022-09-28T15:30:18.765Z,6.38
2022-09-28T15:32:45.999Z,7.25
2022-09-28T15:35:23.156Z,10.52
2022-09-28T15:37:52.315Z,10.80
2022-09-28T15:40:33.744Z,5.32
2022-09-28T15:43:02.849Z,6.72
2022-09-28T15:45:38.401Z,7.40
2022-09-28T15:48:19.339Z,8.77
2022-09-28T15:51:05.444Z,5.22
2022-09-28T15:53:33.760Z,5.32
2022-09-28T15:56:09.765Z,6.10
2022-09-28T15:58:38.562Z,5.95
2022-09-28T16:01:26.272Z,9.65
2022-09-28T16:03:53.540Z,6.65
2022-09-28T16:06:21.646Z,6.53
2022-09-28T16:08:51.599Z,4.05
2022-09-28T16:11:30.364Z,3.83
2022-09-28T16:14:06.522Z,3.20
2022-09-28T16:16:47.973Z,3.22
2022-09-28T16:19:28.916Z,3.22
2022-09-28T16:21:58.275Z,2.60
2022-09-28T16:24:30.866Z,3.15
2022-09-28T16:27:07.173Z,2.78
2022-09-28T16:29:40.605Z,2.67
2022-09-28T16:32:25.825Z,5.15
2022-09-28T16:35:07.882Z,5.85
2022-09-28T16:37:35.050Z,5.97
2022-09-28T16:40:02.414Z,4.75
2022-09-28T16:42:29.602Z,6.20
2022-09-28T16:44:57.001Z,6.60
2022-09-28T16:47:24.406Z,5.18
2022-09-28T16:49:52.042Z,4.18
2022-09-28T16:52:39.243Z,3.85
2022-09-28T16:58:05.211Z,4.28
2022-09-28T17:00:32.721Z,3.35
2022-09-28T17:03:00.025Z,4.32
2022-09-28T17:05:27.557Z,4.13
2022-09-28T17:08:02.171Z,4.05
2022-09-28T17:10:33.705Z,4.45
2022-09-28T17:13:08.863Z,4.97
2022-09-28T17:15:36.208Z,4.35
2022-09-28T17:18:03.369Z,4.10
2022-09-28T17:20:32.361Z,4.75
2022-09-28T17:23:00.290Z,5.07
2022-09-28T17:25:27.959Z,6.40
2022-09-28T17:27:57.686Z,5.90
2022-09-28T17:30:25.820Z,4.15
2022-09-28T17:32:53.296Z,5.35
2022-09-28T17:35:25.572Z,4.13
2022-09-28T17:37:53.442Z,6.53
2022-09-28T17:40:26.169Z,6.53
2022-09-28T17:42:56.284Z,6.25
2022-09-28T17:45:28.918Z,6.03
2022-09-28T17:47:56.279Z,8.23
2022-09-28T17:50:29.814Z,5.00
2022-09-28T17:52:58.351Z,5.43
2022-09-28T17:55:29.008Z,7.28
2022-09-28T17:57:56.782Z,6.05
2022-09-28T18:00:27.686Z,6.07
2022-09-28T18:02:56.272Z,6.30
2022-09-28T18:05:25.100Z,8.57
2022-09-28T18:07:52.979Z,9.50
2022-09-28T18:10:23.029Z,7.70
2022-09-28T18:12:51.210Z,11.07
2022-09-28T18:15:19.830Z,11.02
2022-09-28T18:17:47.523Z,10.05
2022-09-28T18:20:15.175Z,9.27
2022-09-28T18:22:42.698Z,6.90
2022-09-28T18:25:11.289Z,7.18
2022-09-28T18:27:38.667Z,9.20
2022-09-28T18:30:07.220Z,8.13
2022-09-28T18:32:37.131Z,8.38
2022-09-28T18:35:05.961Z,8.40
2022-09-28T18:37:37.648Z,7.50
2022-09-28T18:40:05.591Z,8.00
2022-09-28T18:42:33.762Z,9.00
2022-09-28T18:45:00.921Z,8.43
2022-09-28T18:47:28.159Z,9.32
2022-09-28T18:49:55.805Z,9.20
2022-09-28T18:52:23.007Z,10.35
2022-09-28T18:54:50.970Z,10.43
2022-09-28T18:57:18.854Z,11.93
2022-09-28T18:59:46.268Z,9.02
2022-09-28T19:02:13.754Z,9.95
2022-09-28T19:04:41.710Z,8.32
2022-09-28T19:07:09.365Z,6.95
2022-09-28T19:09:36.544Z,9.15
2022-09-28T19:12:04.041Z,10.40
2022-09-28T19:14:31.249Z,13.50
2022-09-28T19:16:58.442Z,9.05
2022-09-28T19:19:25.769Z,11.10
2022-09-28T19:21:53.015Z,8.43
2022-09-28T19:24:21.313Z,9.77
2022-09-28T19:26:49.096Z,9.27
2022-09-28T19:29:16.749Z,14.27
2022-09-28T19:31:44.021Z,12.60
2022-09-28T19:34:14.131Z,10.35
2022-09-28T19:36:42.568Z,11.13
2022-09-28T19:39:14.662Z,10.52
2022-09-28T19:41:45.795Z,11.80
2022-09-28T19:44:25.220Z,9.80
2022-09-28T19:46:55.493Z,11.18
2022-09-28T19:49:24.331Z,10.55
2022-09-28T19:52:13.951Z,9.20
2022-09-28T19:54:57.042Z,10.02
2022-09-28T19:57:27.998Z,9.10
2022-09-28T20:00:00.861Z,9.57
2022-09-28T20:02:34.023Z,9.13
2022-09-28T20:05:01.529Z,9.13
2022-09-28T20:07:33.045Z,9.43
2022-09-28T20:10:00.523Z,9.18
2022-09-28T20:12:27.645Z,9.27
2022-09-28T20:14:54.821Z,11.25
2022-09-28T20:17:22.042Z,10.77
2022-09-28T20:19:52.012Z,11.82
2022-09-28T20:22:20.115Z,10.25
2022-09-28T20:24:47.452Z,13.15
2022-09-28T20:27:14.610Z,10.32
2022-09-28T20:29:43.404Z,11.45
2022-09-28T20:32:11.901Z,10.95
2022-09-28T20:34:39.155Z,11.60
2022-09-28T20:37:06.350Z,11.65
2022-09-28T20:39:33.481Z,13.52
2022-09-28T20:42:00.709Z,13.30
2022-09-28T20:44:27.861Z,16.25
2022-09-28T20:46:56.884Z,12.55
2022-09-28T20:49:24.108Z,11.13
2022-09-28T20:51:51.278Z,12.80
2022-09-28T20:54:18.684Z,11.95
2022-09-28T20:56:48.377Z,12.90
2022-09-28T20:59:15.624Z,11.15
2022-09-28T21:01:43.269Z,10.35
2022-09-28T21:04:10.924Z,12.32
2022-09-28T21:06:40.961Z,14.18
2022-09-28T21:09:09.827Z,10.80
2022-09-28T21:11:37.934Z,13.55
2022-09-28T21:14:07.282Z,12.23
2022-09-28T21:16:35.883Z,11.48
2022-09-28T21:19:04.251Z,13.88
2022-09-28T21:21:31.399Z,12.93
2022-09-28T21:23:59.030Z,14.30
2022-09-28T21:26:28.960Z,12.63
2022-09-28T21:28:58.445Z,13.10
2022-09-28T21:31:29.297Z,11.70
2022-09-28T21:33:59.821Z,11.85
2022-09-28T21:36:27.161Z,11.45
2022-09-28T21:38:56.514Z,13.80
2022-09-28T21:41:24.979Z,12.82
2022-09-28T21:43:52.621Z,13.98
2022-09-28T21:46:20.158Z,13.05
2022-09-28T21:48:52.611Z,14.43
2022-09-28T21:51:20.590Z,11.73
2022-09-28T21:53:49.420Z,10.10
2022-09-28T21:56:16.835Z,11.40
2022-09-28T21:58:43.959Z,11.15
2022-09-28T22:01:14.951Z,10.93
2022-09-28T22:03:44.318Z,14.02
2022-09-28T22:06:11.950Z,17.00
2022-09-28T22:08:39.890Z,12.05
2022-09-28T22:11:08.537Z,13.27
2022-09-28T22:13:44.631Z,12.15
2022-09-28T22:16:13.503Z,12.35
2022-09-28T22:18:41.150Z,11.68
2022-09-28T22:21:15.793Z,10.77
2022-09-28T22:23:42.967Z,12.35
2022-09-28T22:26:20.277Z,12.48
2022-09-28T22:28:56.138Z,14.48
2022-09-28T22:31:26.690Z,11.45
2022-09-28T22:33:54.691Z,12.82
2022-09-28T22:36:21.786Z,12.98
2022-09-28T22:38:49.397Z,14.73
2022-09-28T22:41:21.057Z,12.45
2022-09-28T22:43:50.064Z,15.75
2022-09-28T22:46:23.342Z,21.65
2022-09-28T22:48:53.410Z,21.63
2022-09-28T22:51:21.567Z,15.90
2022-09-28T22:53:48.977Z,14.57
2022-09-28T22:56:18.946Z,11.27
2022-09-28T22:58:47.255Z,10.65
2022-09-28T23:01:18.017Z,14.32
2022-09-28T23:03:45.388Z,12.00
2022-09-28T23:06:15.148Z,11.95
2022-09-28T23:08:43.148Z,10.52
2022-09-28T23:11:10.972Z,10.95
2022-09-28T23:13:38.621Z,11.60
2022-09-28T23:16:08.262Z,10.65
2022-09-28T23:18:37.778Z,9.57
2022-09-28T23:21:07.097Z,12.70
2022-09-28T23:23:34.792Z,10.50
2022-09-28T23:26:14.583Z,11.60
2022-09-28T23:28:41.746Z,12.27
2022-09-28T23:31:10.410Z,15.55
2022-09-28T23:33:37.858Z,12.95
2022-09-28T23:36:05.493Z,15.23
2022-09-28T23:38:32.984Z,14.73
2022-09-28T23:41:00.460Z,15.45
2022-09-28T23:43:27.926Z,16.05
2022-09-28T23:45:55.195Z,15.70
2022-09-28T23:48:22.413Z,17.33
2022-09-28T23:50:49.768Z,16.17
2022-09-28T23:53:16.907Z,15.75
2022-09-28T23:55:44.142Z,20.35
2022-09-28T23:58:12.363Z,15.68
